sensor_id;sensor_type;location;lat;lon;timestamp;temperature;humidity
50556;DHT22;36508;52.512;13.450;2023-04-03T00:00:42;2.70;99.90
50556;DHT22;36508;52.512;13.450;2023-04-03T00:03:08;2.70;99.90
50556;DHT22;36508;52.512;13.450;2023-04-03T00:05:33;2.70;99.90
50556;DHT22;36508;52.512;13.450;2023-04-03T00:07:59;2.60;99.90
50556;DHT22;36508;52.512;13.450;2023-04-03T00:10:28;2.60;99.90
50556;DHT22;36508;52.512;13.450;2023-04-03T00:12:54;2.50;99.90
50556;DHT22;36508;52.512;13.450;2023-04-03T00:15:20;2.50;99.90
50556;DHT22;36508;52.512;13.450;2023-04-03T00:17:46;2.60;99.90
50556;DHT22;36508;52.512;13.450;2023-04-03T00:20:12;2.50;99.90
50556;DHT22;36508;52.512;13.450;2023-04-03T00:22:37;2.60;99.90
50556;DHT22;36508;52.512;13.450;2023-04-03T00:25:04;2.60;99.90
50556;DHT22;36508;52.512;13.450;2023-04-03T00:27:30;2.50;99.90
50556;DHT22;36508;52.512;13.450;2023-04-03T00:29:56;2.50;99.90
50556;DHT22;36508;52.512;13.450;2023-04-03T00:32:21;2.60;99.90
50556;DHT22;36508;52.512;13.450;2023-04-03T00:34:47;2.60;99.90
50556;DHT22;36508;52.512;13.450;2023-04-03T00:37:13;2.40;99.90
50556;DHT22;36508;52.512;13.450;2023-04-03T00:39:38;2.40;99.90
50556;DHT22;36508;52.512;13.450;2023-04-03T00:42:04;2.30;99.90
50556;DHT22;36508;52.512;13.450;2023-04-03T00:47:00;2.30;99.90
50556;DHT22;36508;52.512;13.450;2023-04-03T00:49:27;2.30;99.90
50556;DHT22;36508;52.512;13.450;2023-04-03T00:51:53;2.30;99.90
50556;DHT22;36508;52.512;13.450;2023-04-03T00:54:20;2.30;99.90
50556;DHT22;36508;52.512;13.450;2023-04-03T00:56:46;2.20;99.90
50556;DHT22;36508;52.512;13.450;2023-04-03T00:59:22;2.30;99.90
50556;DHT22;36508;52.512;13.450;2023-04-03T01:01:52;2.30;99.90
50556;DHT22;36508;52.512;13.450;2023-04-03T01:04:36;2.30;99.90
50556;DHT22;36508;52.512;13.450;2023-04-03T01:09:38;2.20;99.90
50556;DHT22;36508;52.512;13.450;2023-04-03T01:12:15;2.30;99.90
50556;DHT22;36508;52.512;13.450;2023-04-03T01:14:44;2.20;99.90
50556;DHT22;36508;52.512;13.450;2023-04-03T01:25:46;2.00;99.90
50556;DHT22;36508;52.512;13.450;2023-04-03T01:28:18;2.00;99.90
50556;DHT22;36508;52.512;13.450;2023-04-03T01:33:40;2.10;99.90
50556;DHT22;36508;52.512;13.450;2023-04-03T01:36:06;2.10;99.90
50556;DHT22;36508;52.512;13.450;2023-04-03T01:38:32;2.10;99.90
50556;DHT22;36508;52.512;13.450;2023-04-03T01:40:58;2.10;99.90
50556;DHT22;36508;52.512;13.450;2023-04-03T01:43:23;2.10;99.90
50556;DHT22;36508;52.512;13.450;2023-04-03T01:45:49;2.10;99.90
50556;DHT22;36508;52.512;13.450;2023-04-03T01:48:15;2.00;99.90
50556;DHT22;36508;52.512;13.450;2023-04-03T01:50:41;2.00;99.90
50556;DHT22;36508;52.512;13.450;2023-04-03T01:53:07;2.00;99.90
50556;DHT22;36508;52.512;13.450;2023-04-03T01:55:33;1.80;99.90
50556;DHT22;36508;52.512;13.450;2023-04-03T01:57:58;1.80;99.90
50556;DHT22;36508;52.512;13.450;2023-04-03T02:00:25;1.90;99.90
50556;DHT22;36508;52.512;13.450;2023-04-03T02:02:51;1.80;99.90
50556;DHT22;36508;52.512;13.450;2023-04-03T02:05:17;1.80;99.90
50556;DHT22;36508;52.512;13.450;2023-04-03T02:07:43;1.70;99.90
50556;DHT22;36508;52.512;13.450;2023-04-03T02:10:08;1.90;99.90
50556;DHT22;36508;52.512;13.450;2023-04-03T02:12:34;1.80;99.90
50556;DHT22;36508;52.512;13.450;2023-04-03T02:15:00;1.80;99.90
50556;DHT22;36508;52.512;13.450;2023-04-03T02:17:26;1.90;99.90
50556;DHT22;36508;52.512;13.450;2023-04-03T02:19:52;1.80;99.90
50556;DHT22;36508;52.512;13.450;2023-04-03T02:22:17;1.80;99.90
50556;DHT22;36508;52.512;13.450;2023-04-03T02:24:43;1.70;99.90
50556;DHT22;36508;52.512;13.450;2023-04-03T02:27:11;1.80;99.90
50556;DHT22;36508;52.512;13.450;2023-04-03T02:29:36;1.80;99.90
50556;DHT22;36508;52.512;13.450;2023-04-03T02:32:02;1.80;99.90
50556;DHT22;36508;52.512;13.450;2023-04-03T02:34:28;1.70;99.90
50556;DHT22;36508;52.512;13.450;2023-04-03T02:36:53;1.70;99.90
50556;DHT22;36508;52.512;13.450;2023-04-03T02:39:19;1.70;99.90
50556;DHT22;36508;52.512;13.450;2023-04-03T02:41:44;1.60;99.90
50556;DHT22;36508;52.512;13.450;2023-04-03T02:44:11;1.60;99.90
50556;DHT22;36508;52.512;13.450;2023-04-03T02:46:37;1.50;99.90
50556;DHT22;36508;52.512;13.450;2023-04-03T02:49:04;1.50;99.90
50556;DHT22;36508;52.512;13.450;2023-04-03T02:51:30;1.60;99.90
50556;DHT22;36508;52.512;13.450;2023-04-03T02:53:56;1.60;99.90
50556;DHT22;36508;52.512;13.450;2023-04-03T02:56:21;1.40;99.90
50556;DHT22;36508;52.512;13.450;2023-04-03T02:58:47;1.50;99.90
50556;DHT22;36508;52.512;13.450;2023-04-03T03:01:14;1.50;99.90
50556;DHT22;36508;52.512;13.450;2023-04-03T03:03:39;1.50;99.90
50556;DHT22;36508;52.512;13.450;2023-04-03T03:06:09;1.50;99.90
50556;DHT22;36508;52.512;13.450;2023-04-03T03:08:36;1.50;99.90
50556;DHT22;36508;52.512;13.450;2023-04-03T03:11:03;1.50;99.90
50556;DHT22;36508;52.512;13.450;2023-04-03T03:13:29;1.50;99.90
50556;DHT22;36508;52.512;13.450;2023-04-03T03:15:55;1.30;99.90
50556;DHT22;36508;52.512;13.450;2023-04-03T03:18:21;1.40;99.90
50556;DHT22;36508;52.512;13.450;2023-04-03T03:20:54;1.30;99.90
50556;DHT22;36508;52.512;13.450;2023-04-03T03:23:21;1.30;99.90
50556;DHT22;36508;52.512;13.450;2023-04-03T03:25:47;1.30;99.90
50556;DHT22;36508;52.512;13.450;2023-04-03T03:28:13;1.40;99.90
50556;DHT22;36508;52.512;13.450;2023-04-03T03:30:38;1.30;99.90
50556;DHT22;36508;52.512;13.450;2023-04-03T03:33:04;1.30;99.90
50556;DHT22;36508;52.512;13.450;2023-04-03T03:35:29;1.20;99.90
50556;DHT22;36508;52.512;13.450;2023-04-03T03:37:55;1.30;99.90
50556;DHT22;36508;52.512;13.450;2023-04-03T03:40:21;1.20;99.90
50556;DHT22;36508;52.512;13.450;2023-04-03T03:42:48;1.10;99.90
50556;DHT22;36508;52.512;13.450;2023-04-03T03:45:14;1.10;99.90
50556;DHT22;36508;52.512;13.450;2023-04-03T03:47:40;1.10;99.90
50556;DHT22;36508;52.512;13.450;2023-04-03T03:50:06;1.20;99.90
50556;DHT22;36508;52.512;13.450;2023-04-03T03:52:32;1.20;99.90
50556;DHT22;36508;52.512;13.450;2023-04-03T03:54:57;1.20;99.90
50556;DHT22;36508;52.512;13.450;2023-04-03T03:57:23;1.20;99.90
50556;DHT22;36508;52.512;13.450;2023-04-03T03:59:49;1.20;99.90
50556;DHT22;36508;52.512;13.450;2023-04-03T04:02:17;1.10;99.90
50556;DHT22;36508;52.512;13.450;2023-04-03T04:04:42;1.00;99.90
50556;DHT22;36508;52.512;13.450;2023-04-03T04:07:08;1.10;99.90
50556;DHT22;36508;52.512;13.450;2023-04-03T04:09:33;1.10;99.90
50556;DHT22;36508;52.512;13.450;2023-04-03T04:11:59;1.00;99.90
50556;DHT22;36508;52.512;13.450;2023-04-03T04:14:25;1.00;99.90
50556;DHT22;36508;52.512;13.450;2023-04-03T04:16:50;1.00;99.90
50556;DHT22;36508;52.512;13.450;2023-04-03T04:19:16;1.00;99.90
50556;DHT22;36508;52.512;13.450;2023-04-03T04:21:42;0.90;99.90
50556;DHT22;36508;52.512;13.450;2023-04-03T04:24:08;1.00;99.90
50556;DHT22;36508;52.512;13.450;2023-04-03T04:26:34;1.00;99.90
50556;DHT22;36508;52.512;13.450;2023-04-03T04:29:00;1.10;99.90
50556;DHT22;36508;52.512;13.450;2023-04-03T04:31:26;1.00;99.90
50556;DHT22;36508;52.512;13.450;2023-04-03T04:33:52;0.90;99.90
50556;DHT22;36508;52.512;13.450;2023-04-03T04:36:19;1.00;99.90
50556;DHT22;36508;52.512;13.450;2023-04-03T04:38:46;1.00;99.90
50556;DHT22;36508;52.512;13.450;2023-04-03T04:41:11;0.80;99.90
50556;DHT22;36508;52.512;13.450;2023-04-03T04:43:37;0.90;99.90
50556;DHT22;36508;52.512;13.450;2023-04-03T04:46:05;0.90;99.90
50556;DHT22;36508;52.512;13.450;2023-04-03T04:48:30;0.90;99.90
50556;DHT22;36508;52.512;13.450;2023-04-03T04:50:56;1.00;99.90
50556;DHT22;36508;52.512;13.450;2023-04-03T04:53:22;1.00;99.90
50556;DHT22;36508;52.512;13.450;2023-04-03T04:55:47;1.20;99.90
50556;DHT22;36508;52.512;13.450;2023-04-03T04:58:13;1.20;99.90
50556;DHT22;36508;52.512;13.450;2023-04-03T05:00:39;1.10;99.90
50556;DHT22;36508;52.512;13.450;2023-04-03T05:03:05;1.20;99.90
50556;DHT22;36508;52.512;13.450;2023-04-03T05:05:31;1.20;99.90
50556;DHT22;36508;52.512;13.450;2023-04-03T05:07:57;1.10;99.90
50556;DHT22;36508;52.512;13.450;2023-04-03T05:10:22;1.10;99.90
50556;DHT22;36508;52.512;13.450;2023-04-03T05:12:55;1.10;99.90
50556;DHT22;36508;52.512;13.450;2023-04-03T05:15:21;1.20;99.90
50556;DHT22;36508;52.512;13.450;2023-04-03T05:17:49;1.20;99.90
50556;DHT22;36508;52.512;13.450;2023-04-03T05:20:18;1.30;99.90
50556;DHT22;36508;52.512;13.450;2023-04-03T05:22:44;1.30;99.90
50556;DHT22;36508;52.512;13.450;2023-04-03T05:25:10;1.30;99.90
50556;DHT22;36508;52.512;13.450;2023-04-03T05:27:35;1.30;99.90
50556;DHT22;36508;52.512;13.450;2023-04-03T05:30:02;1.30;99.90
50556;DHT22;36508;52.512;13.450;2023-04-03T05:32:28;1.40;99.90
50556;DHT22;36508;52.512;13.450;2023-04-03T05:34:53;1.40;99.90
50556;DHT22;36508;52.512;13.450;2023-04-03T05:37:19;1.60;99.90
50556;DHT22;36508;52.512;13.450;2023-04-03T05:39:45;1.70;99.90
50556;DHT22;36508;52.512;13.450;2023-04-03T05:42:11;1.70;99.90
50556;DHT22;36508;52.512;13.450;2023-04-03T05:44:37;1.60;99.90
50556;DHT22;36508;52.512;13.450;2023-04-03T05:47:04;1.50;99.90
50556;DHT22;36508;52.512;13.450;2023-04-03T05:49:30;1.50;99.90
50556;DHT22;36508;52.512;13.450;2023-04-03T05:51:55;1.50;99.90
50556;DHT22;36508;52.512;13.450;2023-04-03T05:54:26;1.60;99.90
50556;DHT22;36508;52.512;13.450;2023-04-03T05:56:53;1.60;99.90
50556;DHT22;36508;52.512;13.450;2023-04-03T05:59:19;1.60;99.90
50556;DHT22;36508;52.512;13.450;2023-04-03T06:01:46;1.70;99.90
50556;DHT22;36508;52.512;13.450;2023-04-03T06:04:12;1.70;99.90
50556;DHT22;36508;52.512;13.450;2023-04-03T06:06:49;1.70;99.90
50556;DHT22;36508;52.512;13.450;2023-04-03T06:09:17;1.70;99.90
50556;DHT22;36508;52.512;13.450;2023-04-03T06:11:44;1.80;99.90
50556;DHT22;36508;52.512;13.450;2023-04-03T06:14:10;1.80;99.90
50556;DHT22;36508;52.512;13.450;2023-04-03T06:16:36;1.80;99.90
50556;DHT22;36508;52.512;13.450;2023-04-03T06:19:03;1.80;99.90
50556;DHT22;36508;52.512;13.450;2023-04-03T06:21:30;1.90;99.90
50556;DHT22;36508;52.512;13.450;2023-04-03T06:23:56;2.00;99.90
50556;DHT22;36508;52.512;13.450;2023-04-03T06:26:21;1.90;99.90
50556;DHT22;36508;52.512;13.450;2023-04-03T06:28:50;2.00;99.90
50556;DHT22;36508;52.512;13.450;2023-04-03T06:31:15;2.10;99.90
50556;DHT22;36508;52.512;13.450;2023-04-03T06:33:42;2.00;99.90
50556;DHT22;36508;52.512;13.450;2023-04-03T06:36:09;2.20;99.90
50556;DHT22;36508;52.512;13.450;2023-04-03T06:38:35;2.80;99.90
50556;DHT22;36508;52.512;13.450;2023-04-03T06:41:01;2.80;99.90
50556;DHT22;36508;52.512;13.450;2023-04-03T06:43:27;2.80;99.90
50556;DHT22;36508;52.512;13.450;2023-04-03T06:45:53;2.50;99.90
50556;DHT22;36508;52.512;13.450;2023-04-03T06:48:19;2.50;99.90
50556;DHT22;36508;52.512;13.450;2023-04-03T06:50:44;2.50;99.90
50556;DHT22;36508;52.512;13.450;2023-04-03T06:53:10;2.50;99.90
50556;DHT22;36508;52.512;13.450;2023-04-03T06:55:37;2.50;99.90
50556;DHT22;36508;52.512;13.450;2023-04-03T06:58:03;2.50;99.90
50556;DHT22;36508;52.512;13.450;2023-04-03T07:00:29;2.50;99.90
50556;DHT22;36508;52.512;13.450;2023-04-03T07:02:56;2.70;99.90
50556;DHT22;36508;52.512;13.450;2023-04-03T07:05:23;2.70;99.90
50556;DHT22;36508;52.512;13.450;2023-04-03T07:07:49;2.80;99.90
50556;DHT22;36508;52.512;13.450;2023-04-03T07:10:15;2.80;99.90
50556;DHT22;36508;52.512;13.450;2023-04-03T07:12:41;2.90;99.90
50556;DHT22;36508;52.512;13.450;2023-04-03T07:15:07;3.00;99.90
50556;DHT22;36508;52.512;13.450;2023-04-03T07:17:33;3.00;99.90
50556;DHT22;36508;52.512;13.450;2023-04-03T07:19:59;3.00;99.90
50556;DHT22;36508;52.512;13.450;2023-04-03T07:22:25;3.20;99.90
50556;DHT22;36508;52.512;13.450;2023-04-03T07:24:51;3.30;99.90
50556;DHT22;36508;52.512;13.450;2023-04-03T07:27:16;3.50;99.90
50556;DHT22;36508;52.512;13.450;2023-04-03T07:29:43;3.60;99.90
50556;DHT22;36508;52.512;13.450;2023-04-03T07:32:09;3.90;99.90
50556;DHT22;36508;52.512;13.450;2023-04-03T07:34:35;4.00;99.90
50556;DHT22;36508;52.512;13.450;2023-04-03T07:37:01;4.10;99.90
50556;DHT22;36508;52.512;13.450;2023-04-03T07:39:28;4.00;99.90
50556;DHT22;36508;52.512;13.450;2023-04-03T07:41:54;4.00;99.90
50556;DHT22;36508;52.512;13.450;2023-04-03T07:44:21;4.30;99.90
50556;DHT22;36508;52.512;13.450;2023-04-03T07:46:47;4.40;99.90
50556;DHT22;36508;52.512;13.450;2023-04-03T07:49:14;4.30;99.90
50556;DHT22;36508;52.512;13.450;2023-04-03T07:51:39;4.30;99.90
50556;DHT22;36508;52.512;13.450;2023-04-03T07:54:08;4.30;99.90
50556;DHT22;36508;52.512;13.450;2023-04-03T07:56:34;4.40;99.90
50556;DHT22;36508;52.512;13.450;2023-04-03T07:58:59;4.40;99.90
50556;DHT22;36508;52.512;13.450;2023-04-03T08:01:25;4.40;99.90
50556;DHT22;36508;52.512;13.450;2023-04-03T08:03:51;4.40;99.90
50556;DHT22;36508;52.512;13.450;2023-04-03T08:06:19;4.40;99.90
50556;DHT22;36508;52.512;13.450;2023-04-03T08:08:44;4.60;99.90
50556;DHT22;36508;52.512;13.450;2023-04-03T08:11:11;4.70;99.90
50556;DHT22;36508;52.512;13.450;2023-04-03T08:13:37;4.80;99.90
50556;DHT22;36508;52.512;13.450;2023-04-03T08:16:20;5.00;99.90
50556;DHT22;36508;52.512;13.450;2023-04-03T08:18:47;5.10;99.90
50556;DHT22;36508;52.512;13.450;2023-04-03T08:21:13;5.20;99.90
50556;DHT22;36508;52.512;13.450;2023-04-03T08:23:40;5.20;99.90
50556;DHT22;36508;52.512;13.450;2023-04-03T08:26:15;5.30;99.90
50556;DHT22;36508;52.512;13.450;2023-04-03T08:28:41;5.40;99.90
50556;DHT22;36508;52.512;13.450;2023-04-03T08:31:10;5.10;99.90
50556;DHT22;36508;52.512;13.450;2023-04-03T08:33:38;5.10;99.90
50556;DHT22;36508;52.512;13.450;2023-04-03T08:36:05;5.00;99.90
50556;DHT22;36508;52.512;13.450;2023-04-03T08:38:31;5.00;99.90
50556;DHT22;36508;52.512;13.450;2023-04-03T08:41:07;5.00;99.90
50556;DHT22;36508;52.512;13.450;2023-04-03T08:52:15;5.40;99.90
50556;DHT22;36508;52.512;13.450;2023-04-03T08:54:54;5.10;99.90
50556;DHT22;36508;52.512;13.450;2023-04-03T08:57:38;5.10;99.90
50556;DHT22;36508;52.512;13.450;2023-04-03T09:00:15;5.20;99.90
50556;DHT22;36508;52.512;13.450;2023-04-03T09:02:47;5.40;99.90
50556;DHT22;36508;52.512;13.450;2023-04-03T09:05:18;5.50;99.90
50556;DHT22;36508;52.512;13.450;2023-04-03T09:10:49;5.20;99.90
50556;DHT22;36508;52.512;13.450;2023-04-03T09:13:21;5.30;99.90
50556;DHT22;36508;52.512;13.450;2023-04-03T09:15:50;5.50;99.90
50556;DHT22;36508;52.512;13.450;2023-04-03T09:18:22;5.70;99.90
50556;DHT22;36508;52.512;13.450;2023-04-03T09:23:32;6.20;99.90
50556;DHT22;36508;52.512;13.450;2023-04-03T09:26:16;6.40;99.90
50556;DHT22;36508;52.512;13.450;2023-04-03T09:28:46;6.30;99.90
50556;DHT22;36508;52.512;13.450;2023-04-03T09:31:21;6.20;99.90
50556;DHT22;36508;52.512;13.450;2023-04-03T09:37:14;5.90;99.90
50556;DHT22;36508;52.512;13.450;2023-04-03T09:40:34;6.30;99.90
50556;DHT22;36508;52.512;13.450;2023-04-03T09:43:34;6.60;99.90
50556;DHT22;36508;52.512;13.450;2023-04-03T09:49:36;6.80;99.90
50556;DHT22;36508;52.512;13.450;2023-04-03T09:52:45;7.10;99.90
50556;DHT22;36508;52.512;13.450;2023-04-03T09:55:44;7.40;99.90
50556;DHT22;36508;52.512;13.450;2023-04-03T09:58:46;7.30;99.90
50556;DHT22;36508;52.512;13.450;2023-04-03T10:02:03;7.00;99.90
50556;DHT22;36508;52.512;13.450;2023-04-03T10:04:51;6.90;99.90
50556;DHT22;36508;52.512;13.450;2023-04-03T10:07:46;6.80;99.90
50556;DHT22;36508;52.512;13.450;2023-04-03T10:14:24;6.80;99.90
50556;DHT22;36508;52.512;13.450;2023-04-03T10:34:09;6.80;99.90
50556;DHT22;36508;52.512;13.450;2023-04-03T11:11:31;7.90;99.90
50556;DHT22;36508;52.512;13.450;2023-04-03T11:14:26;8.00;99.90
50556;DHT22;36508;52.512;13.450;2023-04-03T11:26:09;8.20;99.90
50556;DHT22;36508;52.512;13.450;2023-04-03T11:28:38;8.30;99.90
50556;DHT22;36508;52.512;13.450;2023-04-03T11:31:27;8.00;99.90
50556;DHT22;36508;52.512;13.450;2023-04-03T11:34:03;7.70;99.90
50556;DHT22;36508;52.512;13.450;2023-04-03T11:36:45;7.80;99.90
50556;DHT22;36508;52.512;13.450;2023-04-03T11:39:23;8.00;99.90
50556;DHT22;36508;52.512;13.450;2023-04-03T11:41:51;8.10;99.90
50556;DHT22;36508;52.512;13.450;2023-04-03T11:44:35;7.80;99.90
50556;DHT22;36508;52.512;13.450;2023-04-03T11:47:09;8.00;99.90
50556;DHT22;36508;52.512;13.450;2023-04-03T11:50:00;8.00;99.90
50556;DHT22;36508;52.512;13.450;2023-04-03T12:11:32;7.80;99.90
50556;DHT22;36508;52.512;13.450;2023-04-03T12:26:50;7.70;99.90
50556;DHT22;36508;52.512;13.450;2023-04-03T12:51:39;7.70;99.90
50556;DHT22;36508;52.512;13.450;2023-04-03T12:54:38;7.70;99.90
50556;DHT22;36508;52.512;13.450;2023-04-03T12:57:20;7.90;99.90
50556;DHT22;36508;52.512;13.450;2023-04-03T12:59:55;7.70;99.90
50556;DHT22;36508;52.512;13.450;2023-04-03T13:02:27;7.80;99.90
50556;DHT22;36508;52.512;13.450;2023-04-03T13:05:16;7.50;99.90
50556;DHT22;36508;52.512;13.450;2023-04-03T13:07:40;7.50;99.90
50556;DHT22;36508;52.512;13.450;2023-04-03T13:12:57;7.70;99.90
50556;DHT22;36508;52.512;13.450;2023-04-03T13:15:43;7.80;99.90
50556;DHT22;36508;52.512;13.450;2023-04-03T13:18:28;8.10;99.90
50556;DHT22;36508;52.512;13.450;2023-04-03T13:21:04;8.00;99.90
50556;DHT22;36508;52.512;13.450;2023-04-03T13:23:35;7.70;99.90
50556;DHT22;36508;52.512;13.450;2023-04-03T13:26:03;7.70;99.90
50556;DHT22;36508;52.512;13.450;2023-04-03T13:28:31;7.90;99.90
50556;DHT22;36508;52.512;13.450;2023-04-03T13:33:53;7.50;99.90
50556;DHT22;36508;52.512;13.450;2023-04-03T13:36:26;7.40;99.90
50556;DHT22;36508;52.512;13.450;2023-04-03T13:39:22;7.50;99.90
50556;DHT22;36508;52.512;13.450;2023-04-03T13:41:56;7.40;99.90
50556;DHT22;36508;52.512;13.450;2023-04-03T13:46:59;7.30;99.90
50556;DHT22;36508;52.512;13.450;2023-04-03T13:50:03;7.20;99.90
50556;DHT22;36508;52.512;13.450;2023-04-03T13:53:00;7.20;99.90
50556;DHT22;36508;52.512;13.450;2023-04-03T13:55:34;7.30;99.90
50556;DHT22;36508;52.512;13.450;2023-04-03T14:03:00;7.20;99.90
50556;DHT22;36508;52.512;13.450;2023-04-03T14:05:25;7.20;99.90
50556;DHT22;36508;52.512;13.450;2023-04-03T14:07:53;7.30;99.90
50556;DHT22;36508;52.512;13.450;2023-04-03T14:10:20;7.30;99.90
50556;DHT22;36508;52.512;13.450;2023-04-03T14:12:48;7.40;99.90
50556;DHT22;36508;52.512;13.450;2023-04-03T14:15:23;7.60;99.90
50556;DHT22;36508;52.512;13.450;2023-04-03T14:17:51;7.60;99.90
50556;DHT22;36508;52.512;13.450;2023-04-03T14:20:22;7.70;99.90
50556;DHT22;36508;52.512;13.450;2023-04-03T14:23:00;7.80;99.90
50556;DHT22;36508;52.512;13.450;2023-04-03T14:25:26;7.80;99.90
50556;DHT22;36508;52.512;13.450;2023-04-03T14:27:53;7.70;99.90
50556;DHT22;36508;52.512;13.450;2023-04-03T14:30:34;7.70;99.90
50556;DHT22;36508;52.512;13.450;2023-04-03T14:33:02;9.10;99.90
50556;DHT22;36508;52.512;13.450;2023-04-03T14:35:28;11.40;99.90
50556;DHT22;36508;52.512;13.450;2023-04-03T14:37:54;11.00;97.60
50556;DHT22;36508;52.512;13.450;2023-04-03T14:40:24;10.20;98.20
50556;DHT22;36508;52.512;13.450;2023-04-03T14:43:14;9.60;99.50
50556;DHT22;36508;52.512;13.450;2023-04-03T14:45:40;8.90;99.90
50556;DHT22;36508;52.512;13.450;2023-04-03T14:48:54;8.40;99.90
50556;DHT22;36508;52.512;13.450;2023-04-03T14:51:01;8.20;99.90
50556;DHT22;36508;52.512;13.450;2023-04-03T14:53:33;7.90;99.90
50556;DHT22;36508;52.512;13.450;2023-04-03T14:55:59;7.70;99.90
50556;DHT22;36508;52.512;13.450;2023-04-03T14:58:25;7.50;99.90
50556;DHT22;36508;52.512;13.450;2023-04-03T15:00:51;7.20;99.90
50556;DHT22;36508;52.512;13.450;2023-04-03T15:03:21;7.00;99.90
50556;DHT22;36508;52.512;13.450;2023-04-03T15:05:48;6.80;99.90
50556;DHT22;36508;52.512;13.450;2023-04-03T15:08:29;6.60;99.90
50556;DHT22;36508;52.512;13.450;2023-04-03T15:10:56;6.80;99.90
50556;DHT22;36508;52.512;13.450;2023-04-03T15:13:23;6.80;99.90
50556;DHT22;36508;52.512;13.450;2023-04-03T15:15:59;6.60;99.90
50556;DHT22;36508;52.512;13.450;2023-04-03T15:18:26;6.60;99.90
50556;DHT22;36508;52.512;13.450;2023-04-03T15:20:54;6.50;99.90
50556;DHT22;36508;52.512;13.450;2023-04-03T15:23:20;6.50;99.90
50556;DHT22;36508;52.512;13.450;2023-04-03T15:25:51;6.20;99.90
50556;DHT22;36508;52.512;13.450;2023-04-03T15:28:30;6.20;99.90
50556;DHT22;36508;52.512;13.450;2023-04-03T15:30:56;6.10;99.90
50556;DHT22;36508;52.512;13.450;2023-04-03T15:33:22;6.10;99.90
50556;DHT22;36508;52.512;13.450;2023-04-03T15:35:48;6.10;99.90
50556;DHT22;36508;52.512;13.450;2023-04-03T15:38:14;6.10;99.90
50556;DHT22;36508;52.512;13.450;2023-04-03T15:40:40;6.00;99.90
50556;DHT22;36508;52.512;13.450;2023-04-03T15:43:06;5.90;99.90
50556;DHT22;36508;52.512;13.450;2023-04-03T15:45:33;6.00;99.90
50556;DHT22;36508;52.512;13.450;2023-04-03T15:48:01;6.20;99.90
50556;DHT22;36508;52.512;13.450;2023-04-03T15:50:27;6.20;99.90
50556;DHT22;36508;52.512;13.450;2023-04-03T15:52:53;6.30;99.90
50556;DHT22;36508;52.512;13.450;2023-04-03T15:55:25;6.30;99.90
50556;DHT22;36508;52.512;13.450;2023-04-03T15:57:52;6.30;99.90
50556;DHT22;36508;52.512;13.450;2023-04-03T16:00:24;6.30;99.90
50556;DHT22;36508;52.512;13.450;2023-04-03T16:03:04;6.20;99.90
50556;DHT22;36508;52.512;13.450;2023-04-03T16:05:31;6.10;99.90
50556;DHT22;36508;52.512;13.450;2023-04-03T16:07:58;6.00;99.90
50556;DHT22;36508;52.512;13.450;2023-04-03T16:10:25;6.20;99.90
50556;DHT22;36508;52.512;13.450;2023-04-03T16:12:50;7.10;99.90
50556;DHT22;36508;52.512;13.450;2023-04-03T16:15:32;7.80;99.90
50556;DHT22;36508;52.512;13.450;2023-04-03T16:17:59;8.60;99.90
50556;DHT22;36508;52.512;13.450;2023-04-03T16:20:25;8.90;99.90
50556;DHT22;36508;52.512;13.450;2023-04-03T16:22:51;9.10;99.90
50556;DHT22;36508;52.512;13.450;2023-04-03T16:25:17;9.60;99.90
50556;DHT22;36508;52.512;13.450;2023-04-03T16:27:46;9.50;99.90
50556;DHT22;36508;52.512;13.450;2023-04-03T16:30:12;8.70;99.90
50556;DHT22;36508;52.512;13.450;2023-04-03T16:32:38;8.50;99.90
50556;DHT22;36508;52.512;13.450;2023-04-03T16:35:04;8.10;99.90
50556;DHT22;36508;52.512;13.450;2023-04-03T16:37:30;7.50;99.90
50556;DHT22;36508;52.512;13.450;2023-04-03T16:39:56;7.10;99.90
50556;DHT22;36508;52.512;13.450;2023-04-03T16:42:24;6.90;99.90
50556;DHT22;36508;52.512;13.450;2023-04-03T16:44:49;6.70;99.90
50556;DHT22;36508;52.512;13.450;2023-04-03T16:47:15;6.50;99.90
50556;DHT22;36508;52.512;13.450;2023-04-03T16:49:45;6.30;99.90
50556;DHT22;36508;52.512;13.450;2023-04-03T16:52:13;6.30;99.90
50556;DHT22;36508;52.512;13.450;2023-04-03T16:54:39;6.10;99.90
50556;DHT22;36508;52.512;13.450;2023-04-03T16:57:05;6.10;99.90
50556;DHT22;36508;52.512;13.450;2023-04-03T16:59:30;6.20;99.90
50556;DHT22;36508;52.512;13.450;2023-04-03T17:01:56;6.30;99.90
50556;DHT22;36508;52.512;13.450;2023-04-03T17:04:31;6.20;99.90
50556;DHT22;36508;52.512;13.450;2023-04-03T17:06:56;6.30;99.90
50556;DHT22;36508;52.512;13.450;2023-04-03T17:09:22;6.30;99.90
50556;DHT22;36508;52.512;13.450;2023-04-03T17:11:48;6.20;99.90
50556;DHT22;36508;52.512;13.450;2023-04-03T17:14:14;6.00;99.90
50556;DHT22;36508;52.512;13.450;2023-04-03T17:16:39;5.80;99.90
50556;DHT22;36508;52.512;13.450;2023-04-03T17:19:05;5.70;99.90
50556;DHT22;36508;52.512;13.450;2023-04-03T17:21:32;5.70;99.90
50556;DHT22;36508;52.512;13.450;2023-04-03T17:24:03;5.70;99.90
50556;DHT22;36508;52.512;13.450;2023-04-03T17:26:37;5.60;99.90
50556;DHT22;36508;52.512;13.450;2023-04-03T17:29:03;5.60;99.90
50556;DHT22;36508;52.512;13.450;2023-04-03T17:31:29;5.50;99.90
50556;DHT22;36508;52.512;13.450;2023-04-03T17:33:54;5.50;99.90
50556;DHT22;36508;52.512;13.450;2023-04-03T17:36:20;5.70;99.90
50556;DHT22;36508;52.512;13.450;2023-04-03T17:38:46;5.70;99.90
50556;DHT22;36508;52.512;13.450;2023-04-03T17:41:13;5.60;99.90
50556;DHT22;36508;52.512;13.450;2023-04-03T17:43:41;5.40;99.90
50556;DHT22;36508;52.512;13.450;2023-04-03T17:46:09;5.40;99.90
50556;DHT22;36508;52.512;13.450;2023-04-03T17:48:39;5.40;99.90
50556;DHT22;36508;52.512;13.450;2023-04-03T17:51:07;5.40;99.90
50556;DHT22;36508;52.512;13.450;2023-04-03T17:53:33;5.40;99.90
50556;DHT22;36508;52.512;13.450;2023-04-03T17:56:04;5.40;99.90
50556;DHT22;36508;52.512;13.450;2023-04-03T17:58:29;5.30;99.90
50556;DHT22;36508;52.512;13.450;2023-04-03T18:00:55;5.20;99.90
50556;DHT22;36508;52.512;13.450;2023-04-03T18:03:21;5.20;99.90
50556;DHT22;36508;52.512;13.450;2023-04-03T18:05:47;5.20;99.90
50556;DHT22;36508;52.512;13.450;2023-04-03T18:08:15;5.10;99.90
50556;DHT22;36508;52.512;13.450;2023-04-03T18:10:41;5.10;99.90
50556;DHT22;36508;52.512;13.450;2023-04-03T18:13:07;5.10;99.90
50556;DHT22;36508;52.512;13.450;2023-04-03T18:15:33;5.20;99.90
50556;DHT22;36508;52.512;13.450;2023-04-03T18:17:59;5.20;99.90
50556;DHT22;36508;52.512;13.450;2023-04-03T18:20:25;5.20;99.90
50556;DHT22;36508;52.512;13.450;2023-04-03T18:22:51;5.10;99.90
50556;DHT22;36508;52.512;13.450;2023-04-03T18:25:17;5.10;99.90
50556;DHT22;36508;52.512;13.450;2023-04-03T18:27:44;4.90;99.90
50556;DHT22;36508;52.512;13.450;2023-04-03T18:30:13;4.80;99.90
50556;DHT22;36508;52.512;13.450;2023-04-03T18:32:39;4.80;99.90